createdAt,value
2018-01-20T00:01:17.013Z,20.30
2018-01-20T00:03:45.262Z,18.63
2018-01-20T00:06:13.529Z,20.07
2018-01-20T00:08:41.789Z,17.43
2018-01-20T00:11:21.873Z,19.43
2018-01-20T00:13:50.132Z,18.57
2018-01-20T00:16:18.412Z,18.63
2018-01-20T00:18:47.477Z,19.53
2018-01-20T00:21:15.713Z,20.07
2018-01-20T00:23:43.962Z,18.60
2018-01-20T00:26:27.172Z,18.73
2018-01-20T00:28:55.448Z,17.80
2018-01-20T00:31:23.695Z,17.43
2018-01-20T00:33:52.784Z,19.00
2018-01-20T00:36:21.848Z,16.90
2018-01-20T00:38:50.866Z,17.37
2018-01-20T00:41:19.166Z,16.57
2018-01-20T00:43:48.256Z,16.93
2018-01-20T00:46:19.694Z,15.70
2018-01-20T00:48:48.735Z,16.40
2018-01-20T00:51:16.992Z,15.90
2018-01-20T00:53:45.266Z,19.03
2018-01-20T00:56:13.569Z,16.80
2018-01-20T00:58:41.810Z,17.20
2018-01-20T01:01:10.048Z,17.13
2018-01-20T01:03:38.308Z,19.13
2018-01-20T01:06:06.576Z,17.23
2018-01-20T01:08:35.197Z,18.23
2018-01-20T01:11:03.720Z,17.93
2018-01-20T01:13:32.104Z,18.53
2018-01-20T01:16:00.478Z,18.10
2018-01-20T01:18:28.817Z,17.50
2018-01-20T01:20:57.092Z,16.33
2018-01-20T01:23:25.589Z,16.60
2018-01-20T01:25:55.521Z,14.90
2018-01-20T01:28:23.826Z,14.33
2018-01-20T01:30:52.065Z,16.43
2018-01-20T01:33:20.340Z,14.07
2018-01-20T01:35:48.616Z,14.57
2018-01-20T01:38:17.628Z,15.27
2018-01-20T01:40:46.056Z,12.90
2018-01-20T01:43:14.486Z,15.73
2018-01-20T01:45:42.783Z,15.93
2018-01-20T01:48:11.168Z,16.17
2018-01-20T01:50:39.416Z,15.67
2018-01-20T01:53:07.685Z,14.83
2018-01-20T01:55:35.980Z,14.63
2018-01-20T01:58:04.293Z,15.43
2018-01-20T02:00:32.521Z,15.57
2018-01-20T02:03:00.818Z,15.13
2018-01-20T02:05:29.062Z,14.40
2018-01-20T02:07:57.328Z,14.07
2018-01-20T02:10:26.387Z,14.50
2018-01-20T02:12:54.632Z,13.80
2018-01-20T02:15:22.902Z,14.07
2018-01-20T02:17:51.168Z,13.60
2018-01-20T02:20:19.453Z,15.03
2018-01-20T02:22:47.700Z,15.10
2018-01-20T02:25:16.093Z,14.57
2018-01-20T02:27:44.341Z,13.73
2018-01-20T02:30:12.576Z,16.03
2018-01-20T02:32:40.856Z,15.53
2018-01-20T02:35:09.178Z,14.43
2018-01-20T02:37:37.397Z,16.37
2018-01-20T02:40:05.656Z,15.10
2018-01-20T02:42:33.925Z,14.23
2018-01-20T02:45:02.332Z,15.87
2018-01-20T02:47:30.625Z,15.77
2018-01-20T02:50:00.070Z,15.40
2018-01-20T02:52:29.082Z,15.47
2018-01-20T02:54:57.414Z,15.13
2018-01-20T02:57:25.649Z,15.33
2018-01-20T02:59:53.892Z,16.20
2018-01-20T03:02:22.953Z,15.63
2018-01-20T03:04:51.188Z,16.40
2018-01-20T03:07:19.445Z,16.40
2018-01-20T03:09:48.510Z,16.63
2018-01-20T03:12:16.743Z,17.50
2018-01-20T03:14:44.976Z,17.10
2018-01-20T03:17:13.268Z,17.93
2018-01-20T03:19:42.413Z,16.80
2018-01-20T03:22:10.724Z,17.27
2018-01-20T03:24:39.084Z,15.33
2018-01-20T03:27:07.320Z,17.77
2018-01-20T03:29:35.574Z,16.00
2018-01-20T03:32:04.652Z,17.13
2018-01-20T03:34:32.907Z,16.80
2018-01-20T03:37:01.151Z,16.27
2018-01-20T03:39:29.400Z,14.07
2018-01-20T03:41:57.653Z,16.30
2018-01-20T03:44:25.899Z,13.73
2018-01-20T03:46:55.204Z,16.70
2018-01-20T03:49:23.471Z,16.17
2018-01-20T03:51:52.976Z,17.13
2018-01-20T03:54:21.256Z,15.00
2018-01-20T03:56:49.506Z,15.77
2018-01-20T03:59:17.838Z,15.47
2018-01-20T04:01:46.132Z,16.17
2018-01-20T04:04:15.219Z,15.43
2018-01-20T04:06:43.500Z,16.17
2018-01-20T04:09:11.772Z,17.13
2018-01-20T04:11:40.015Z,16.43
2018-01-20T04:14:08.260Z,16.53
2018-01-20T04:16:36.540Z,14.60
2018-01-20T04:19:04.784Z,16.17
2018-01-20T04:21:33.788Z,15.37
2018-01-20T04:24:02.152Z,15.23
2018-01-20T04:26:30.393Z,16.93
2018-01-20T04:28:58.766Z,16.33
2018-01-20T04:31:27.031Z,15.47
2018-01-20T04:33:55.295Z,15.30
2018-01-20T04:36:23.658Z,15.80
2018-01-20T04:38:52.698Z,16.33
2018-01-20T04:41:20.936Z,15.00
2018-01-20T04:43:49.187Z,15.47
2018-01-20T04:46:18.232Z,15.00
2018-01-20T04:48:46.473Z,14.33
2018-01-20T04:51:14.733Z,14.93
2018-01-20T04:53:44.982Z,15.53
2018-01-20T04:56:13.221Z,15.40
2018-01-20T04:58:42.292Z,15.27
2018-01-20T05:01:10.682Z,15.53
2018-01-20T05:03:38.964Z,14.60
2018-01-20T05:06:07.248Z,13.80
2018-01-20T05:08:35.516Z,13.47
2018-01-20T05:11:03.756Z,14.40
2018-01-20T05:13:31.987Z,14.20
2018-01-20T05:16:01.037Z,14.20
2018-01-20T05:18:29.364Z,13.63
2018-01-20T05:20:58.368Z,13.07
2018-01-20T05:23:26.665Z,14.27
2018-01-20T05:25:54.897Z,14.07
2018-01-20T05:28:23.930Z,14.90
2018-01-20T05:30:52.193Z,13.53
2018-01-20T05:33:20.457Z,13.60
2018-01-20T05:35:49.465Z,14.40
2018-01-20T05:38:17.737Z,16.70
2018-01-20T05:40:45.972Z,13.83
2018-01-20T05:43:14.249Z,15.90
2018-01-20T05:45:42.557Z,14.23
2018-01-20T05:48:11.569Z,15.17
2018-01-20T05:50:39.812Z,15.70
2018-01-20T05:53:08.998Z,14.67
2018-01-20T05:55:39.977Z,14.27
2018-01-20T05:58:08.241Z,14.57
2018-01-20T06:00:37.264Z,14.90
2018-01-20T06:03:05.596Z,14.57
2018-01-20T06:05:33.832Z,14.20
2018-01-20T06:08:02.145Z,15.00
2018-01-20T06:10:30.432Z,13.77
2018-01-20T06:12:59.475Z,15.50
2018-01-20T06:15:27.735Z,14.60
2018-01-20T06:17:55.992Z,17.80
2018-01-20T06:20:24.272Z,15.30
2018-01-20T06:22:52.541Z,16.83
2018-01-20T06:25:20.782Z,17.70
2018-01-20T06:27:49.038Z,16.53
2018-01-20T06:30:17.360Z,17.10
2018-01-20T06:32:46.369Z,18.30
2018-01-20T06:35:14.648Z,19.17
2018-01-20T06:37:42.925Z,21.47
2018-01-20T06:42:33.013Z,18.20
2018-01-20T06:45:02.054Z,14.70
2018-01-20T06:47:30.292Z,16.83
2018-01-20T06:49:58.592Z,16.50
2018-01-20T06:52:26.884Z,19.07
2018-01-20T06:54:55.145Z,20.03
2018-01-20T06:57:23.400Z,16.03
2018-01-20T06:59:51.704Z,17.17
2018-01-20T07:02:19.952Z,18.60
2018-01-20T07:04:48.224Z,16.83
2018-01-20T07:07:16.541Z,15.03
2018-01-20T07:09:44.800Z,15.53
2018-01-20T07:12:13.143Z,15.33
2018-01-20T07:14:42.215Z,16.77
2018-01-20T07:17:10.592Z,13.93
2018-01-20T07:19:38.844Z,14.57
2018-01-20T07:22:07.112Z,15.93
2018-01-20T07:24:35.366Z,15.90
2018-01-20T07:27:03.647Z,16.07
2018-01-20T07:29:31.925Z,17.77
2018-01-20T07:32:00.185Z,15.33
2018-01-20T07:34:29.194Z,16.17
2018-01-20T07:36:57.482Z,16.10
2018-01-20T07:39:25.760Z,16.17
2018-01-20T07:41:54.033Z,16.17
2018-01-20T07:44:22.305Z,13.67
2018-01-20T07:46:50.549Z,14.57
2018-01-20T07:49:19.566Z,15.50
2018-01-20T07:51:47.816Z,14.57
2018-01-20T07:54:16.828Z,16.93
2018-01-20T07:56:45.081Z,15.10
2018-01-20T07:59:13.564Z,14.37
2018-01-20T08:01:42.609Z,18.20
2018-01-20T08:04:12.422Z,16.43
2018-01-20T08:06:41.452Z,16.13
2018-01-20T08:09:10.604Z,16.37
2018-01-20T08:11:38.885Z,16.47
2018-01-20T08:14:07.261Z,14.87
2018-01-20T08:16:36.257Z,16.67
2018-01-20T08:19:04.500Z,17.03
2018-01-20T08:21:33.548Z,16.07
2018-01-20T08:24:01.788Z,17.10
2018-01-20T08:26:30.094Z,16.17
2018-01-20T08:28:58.368Z,13.10
2018-01-20T08:31:26.597Z,14.10
2018-01-20T08:33:54.848Z,13.73
2018-01-20T08:36:23.118Z,11.13
2018-01-20T08:38:51.403Z,13.13
2018-01-20T08:41:19.700Z,14.20
2018-01-20T08:43:50.033Z,12.47
2018-01-20T08:46:18.444Z,12.17
2018-01-20T08:48:47.091Z,13.70
2018-01-20T08:51:19.250Z,12.30
2018-01-20T08:53:48.438Z,12.43
2018-01-20T08:56:16.826Z,12.87
2018-01-20T08:58:45.097Z,11.67
2018-01-20T09:01:13.666Z,11.27
2018-01-20T09:03:42.317Z,12.90
2018-01-20T09:06:11.825Z,12.73
2018-01-20T09:08:40.061Z,12.67
2018-01-20T09:11:09.410Z,13.70
2018-01-20T09:13:39.340Z,12.47
2018-01-20T09:16:07.623Z,11.27
2018-01-20T09:18:35.890Z,11.73
2018-01-20T09:21:04.182Z,12.43
2018-01-20T09:23:32.836Z,12.20
2018-01-20T09:26:01.145Z,11.87
2018-01-20T09:28:29.461Z,12.93
2018-01-20T09:30:58.493Z,11.80
2018-01-20T09:33:26.857Z,13.00
2018-01-20T09:35:55.129Z,12.37
2018-01-20T09:38:23.401Z,11.83
2018-01-20T09:40:51.688Z,11.03
2018-01-20T09:43:20.804Z,11.57
2018-01-20T09:45:49.045Z,10.83
2018-01-20T09:48:17.304Z,11.23
2018-01-20T09:50:45.637Z,11.87
2018-01-20T09:53:14.821Z,11.53
2018-01-20T09:55:43.079Z,11.13
2018-01-20T09:58:11.470Z,10.70
2018-01-20T10:00:39.706Z,11.10
2018-01-20T10:03:09.969Z,10.17
2018-01-20T10:05:38.230Z,10.63
2018-01-20T10:08:06.500Z,11.33
2018-01-20T10:10:34.744Z,9.53
2018-01-20T10:13:04.213Z,9.37
2018-01-20T10:15:32.477Z,10.60
2018-01-20T10:18:00.748Z,9.40
2018-01-20T10:20:29.024Z,9.90
2018-01-20T10:22:57.265Z,10.77
2018-01-20T10:25:26.331Z,10.40
2018-01-20T10:27:54.650Z,9.40
2018-01-20T10:30:23.668Z,10.17
2018-01-20T10:32:51.892Z,9.90
2018-01-20T10:35:20.225Z,10.40
2018-01-20T10:37:50.427Z,10.77
2018-01-20T10:40:18.955Z,9.57
2018-01-20T10:42:47.229Z,10.17
2018-01-20T10:45:15.654Z,10.90
2018-01-20T10:47:44.328Z,11.10
2018-01-20T10:50:12.660Z,10.03
2018-01-20T10:52:44.016Z,11.40
2018-01-20T10:55:14.537Z,11.93
2018-01-20T10:57:43.047Z,11.17
2018-01-20T11:00:11.392Z,11.40
2018-01-20T11:02:39.701Z,11.17
2018-01-20T11:05:09.390Z,10.47
2018-01-20T11:07:37.672Z,9.93
2018-01-20T11:10:06.224Z,9.90
2018-01-20T11:12:35.501Z,10.47
2018-01-20T11:15:03.895Z,10.87
2018-01-20T11:17:33.153Z,10.87
2018-01-20T11:20:01.384Z,11.07
2018-01-20T11:22:29.701Z,10.43
2018-01-20T11:24:58.052Z,10.63
2018-01-20T11:27:26.525Z,10.20
2018-01-20T11:29:55.648Z,10.77
2018-01-20T11:32:25.125Z,10.93
2018-01-20T11:34:53.512Z,10.00
2018-01-20T11:37:22.271Z,10.10
2018-01-20T11:39:51.812Z,9.60
2018-01-20T11:42:20.213Z,10.00
2018-01-20T11:44:48.624Z,10.93
2018-01-20T11:47:17.066Z,11.20
2018-01-20T11:49:45.394Z,11.60
2018-01-20T11:52:14.581Z,11.57
2018-01-20T11:54:42.846Z,11.33
2018-01-20T11:57:11.136Z,10.47
2018-01-20T11:59:39.393Z,10.30
2018-01-20T12:02:07.772Z,9.90
2018-01-20T12:04:35.996Z,10.77
2018-01-20T12:07:04.380Z,11.13
2018-01-20T12:09:32.736Z,10.87
2018-01-20T12:12:01.786Z,10.17
2018-01-20T12:14:30.048Z,10.83
2018-01-20T12:16:58.424Z,10.07
2018-01-20T12:19:27.575Z,11.13
2018-01-20T12:21:55.858Z,10.97
2018-01-20T12:24:24.996Z,10.87
2018-01-20T12:26:53.263Z,10.97
2018-01-20T12:29:21.492Z,11.10
2018-01-20T12:31:49.967Z,11.43
2018-01-20T12:34:18.382Z,11.60
2018-01-20T12:36:48.864Z,10.70
2018-01-20T12:39:17.436Z,10.40
2018-01-20T12:41:46.948Z,11.30
2018-01-20T12:44:15.583Z,10.60
2018-01-20T12:46:43.880Z,10.87
2018-01-20T12:49:12.959Z,12.00
2018-01-20T12:51:41.993Z,11.70
2018-01-20T12:54:10.280Z,11.33
2018-01-20T12:56:38.560Z,11.00
2018-01-20T12:59:06.878Z,11.00
2018-01-20T13:01:35.149Z,11.37
2018-01-20T13:04:03.392Z,11.47
2018-01-20T13:06:31.692Z,13.00
2018-01-20T13:09:00.180Z,12.63
2018-01-20T13:11:28.432Z,11.30
2018-01-20T13:13:56.773Z,11.37
2018-01-20T13:16:25.897Z,11.80
2018-01-20T13:18:54.243Z,11.50
2018-01-20T13:21:23.244Z,10.43
2018-01-20T13:23:51.641Z,10.77
2018-01-20T13:26:19.953Z,11.73
2018-01-20T13:28:48.360Z,10.83
2018-01-20T13:31:18.003Z,10.60
2018-01-20T13:33:46.324Z,10.83
2018-01-20T13:36:14.634Z,12.53
2018-01-20T13:38:43.683Z,11.03
2018-01-20T13:41:11.921Z,11.57
2018-01-20T13:43:40.164Z,11.43
2018-01-20T13:46:09.198Z,13.10
2018-01-20T13:48:37.453Z,11.73
2018-01-20T13:51:05.685Z,12.40
2018-01-20T13:53:33.976Z,12.57
2018-01-20T13:56:02.299Z,11.67
2018-01-20T13:58:30.523Z,12.27
2018-01-20T14:00:58.782Z,12.43
2018-01-20T14:03:27.804Z,13.17
2018-01-20T14:05:56.053Z,13.03
2018-01-20T14:08:25.208Z,13.17
2018-01-20T14:10:53.609Z,12.77
2018-01-20T14:13:22.628Z,13.63
2018-01-20T14:15:50.936Z,13.80
2018-01-20T14:18:19.320Z,13.67
2018-01-20T14:20:47.706Z,14.20
2018-01-20T14:23:15.991Z,13.43
2018-01-20T14:25:44.284Z,13.57
2018-01-20T14:28:12.553Z,14.37
2018-01-20T14:30:40.885Z,13.97
2018-01-20T14:33:09.171Z,13.53
2018-01-20T14:35:37.381Z,12.97
2018-01-20T14:38:05.722Z,12.77
2018-01-20T14:40:33.967Z,12.20
2018-01-20T14:43:02.979Z,13.53
2018-01-20T14:45:31.312Z,13.97
2018-01-20T14:47:59.580Z,14.73
2018-01-20T14:50:27.977Z,12.60
2018-01-20T14:52:56.222Z,14.73
2018-01-20T14:55:24.515Z,14.80
2018-01-20T14:57:52.737Z,14.37
2018-01-20T15:00:21.246Z,14.80
2018-01-20T15:02:49.610Z,14.13
2018-01-20T15:05:17.873Z,14.07
2018-01-20T15:07:46.168Z,14.40
2018-01-20T15:10:14.590Z,14.33
2018-01-20T15:12:43.716Z,14.07
2018-01-20T15:15:12.146Z,13.90
2018-01-20T15:17:40.390Z,13.17
2018-01-20T15:20:08.677Z,12.33
2018-01-20T15:22:37.251Z,12.70
2018-01-20T15:25:05.533Z,12.10
2018-01-20T15:27:33.911Z,13.57
2018-01-20T15:30:02.292Z,12.63
2018-01-20T15:32:30.686Z,12.00
2018-01-20T15:34:58.917Z,12.40
2018-01-20T15:37:27.988Z,12.70
2018-01-20T15:39:56.289Z,13.10
2018-01-20T15:42:25.351Z,11.97
2018-01-20T15:44:53.641Z,12.73
2018-01-20T15:47:21.966Z,12.30
2018-01-20T15:49:50.233Z,13.73
2018-01-20T15:52:18.517Z,13.37
2018-01-20T15:54:46.781Z,11.80
2018-01-20T15:57:15.040Z,13.70
2018-01-20T15:59:44.105Z,12.73
2018-01-20T16:02:12.432Z,12.73
2018-01-20T16:04:41.006Z,11.80
2018-01-20T16:07:09.303Z,14.03
2018-01-20T16:09:37.588Z,14.40
2018-01-20T16:12:05.817Z,13.17
2018-01-20T16:14:35.021Z,13.87
2018-01-20T16:17:03.325Z,14.17
2018-01-20T16:19:31.582Z,13.50
2018-01-20T16:22:00.127Z,13.87
2018-01-20T16:24:28.450Z,13.73
2018-01-20T16:26:56.710Z,13.60
2018-01-20T16:29:25.052Z,13.03
2018-01-20T16:31:53.320Z,14.90
2018-01-20T16:34:21.595Z,14.60
2018-01-20T16:36:49.856Z,13.60
2018-01-20T16:39:18.866Z,15.80
2018-01-20T16:41:47.160Z,16.43
2018-01-20T16:44:15.450Z,13.60
2018-01-20T16:46:43.800Z,15.27
2018-01-20T16:49:12.030Z,15.13
2018-01-20T16:51:41.153Z,15.30
2018-01-20T16:54:10.990Z,14.60
2018-01-20T16:56:39.259Z,15.07
2018-01-20T16:59:07.515Z,17.17
2018-01-20T17:01:35.879Z,15.00
2018-01-20T17:04:05.075Z,17.27
2018-01-20T17:06:34.142Z,14.63
2018-01-20T17:09:02.396Z,16.00
2018-01-20T17:11:30.798Z,17.53
2018-01-20T17:13:59.132Z,17.10
2018-01-20T17:16:28.624Z,16.40
2018-01-20T17:18:57.718Z,16.53
2018-01-20T17:21:26.041Z,18.57
2018-01-20T17:23:54.329Z,17.40
2018-01-20T17:26:22.796Z,19.00
2018-01-20T17:28:51.053Z,15.70
2018-01-20T17:31:19.288Z,17.97
2018-01-20T17:33:48.336Z,16.43
2018-01-20T17:36:16.689Z,17.33
2018-01-20T17:38:45.134Z,20.00
2018-01-20T17:41:13.393Z,21.07
2018-01-20T17:43:41.662Z,19.67
2018-01-20T17:46:09.981Z,16.33
2018-01-20T17:48:39.071Z,19.17
2018-01-20T17:51:12.681Z,16.40
2018-01-20T17:53:41.777Z,16.37
2018-01-20T17:56:10.827Z,17.13
2018-01-20T17:58:39.336Z,16.17
2018-01-20T18:01:07.669Z,17.60
2018-01-20T18:03:35.952Z,16.60
2018-01-20T18:06:04.249Z,16.67
2018-01-20T18:08:32.557Z,15.10
2018-01-20T18:11:01.601Z,14.87
2018-01-20T18:13:29.904Z,16.07
2018-01-20T18:15:58.265Z,15.17
2018-01-20T18:18:26.612Z,17.43
2018-01-20T18:20:55.225Z,14.90
2018-01-20T18:23:23.512Z,17.03
2018-01-20T18:25:51.947Z,16.70
2018-01-20T18:28:21.097Z,15.27
2018-01-20T18:30:49.484Z,17.57
2018-01-20T18:33:17.845Z,20.63
2018-01-20T18:35:46.153Z,17.50
2018-01-20T18:38:14.417Z,17.40
2018-01-20T18:40:43.361Z,16.30
2018-01-20T18:43:12.437Z,19.57
2018-01-20T18:45:41.580Z,16.70
2018-01-20T18:48:09.907Z,16.10
2018-01-20T18:50:38.408Z,20.30
2018-01-20T18:53:06.732Z,18.20
2018-01-20T18:55:35.316Z,18.27
2018-01-20T18:58:03.625Z,19.13
2018-01-20T19:00:31.920Z,22.17
2018-01-20T19:03:01.112Z,21.60
2018-01-20T19:05:30.198Z,18.70
2018-01-20T19:07:58.453Z,19.43
2018-01-20T19:10:26.837Z,17.37
2018-01-20T19:12:55.206Z,20.13
2018-01-20T19:15:23.506Z,22.30
2018-01-20T19:17:52.855Z,21.70
2018-01-20T19:20:21.525Z,21.03
2018-01-20T19:22:50.588Z,19.47
2018-01-20T19:25:18.954Z,18.73
2018-01-20T19:27:47.270Z,22.50
2018-01-20T19:30:15.584Z,21.30
2018-01-20T19:32:44.076Z,16.90
2018-01-20T19:35:12.401Z,20.33
2018-01-20T19:37:41.448Z,18.90
2018-01-20T19:40:09.704Z,21.03
2018-01-20T19:42:38.053Z,20.30
2018-01-20T19:45:07.440Z,22.30
2018-01-20T19:47:35.828Z,21.47
2018-01-20T19:50:04.402Z,22.73
2018-01-20T19:52:32.798Z,24.27
2018-01-20T19:55:01.271Z,25.20
2018-01-20T19:57:30.299Z,26.03
2018-01-20T20:00:00.260Z,24.03
2018-01-20T20:02:29.616Z,24.60
2018-01-20T20:04:58.094Z,20.43
2018-01-20T20:07:26.407Z,25.20
2018-01-20T20:09:55.384Z,25.63
2018-01-20T20:12:23.728Z,21.63
2018-01-20T20:14:51.977Z,26.03
2018-01-20T20:17:20.449Z,23.80
2018-01-20T20:19:49.649Z,24.43
2018-01-20T20:22:17.947Z,20.17
2018-01-20T20:24:46.245Z,24.33
2018-01-20T20:27:14.938Z,21.63
2018-01-20T20:29:43.865Z,21.07
2018-01-20T20:32:13.195Z,23.27
2018-01-20T20:34:41.577Z,21.03
2018-01-20T20:37:10.224Z,22.70
2018-01-20T20:39:39.415Z,20.97
2018-01-20T20:42:08.230Z,22.20
2018-01-20T20:44:37.810Z,20.30
2018-01-20T20:47:06.251Z,20.23
2018-01-20T20:49:34.592Z,21.37
2018-01-20T20:52:03.921Z,20.90
2018-01-20T20:54:32.692Z,21.63
2018-01-20T20:57:02.005Z,22.47
2018-01-20T20:59:30.704Z,21.60
2018-01-20T21:01:58.972Z,22.77
2018-01-20T21:04:27.390Z,20.90
2018-01-20T21:06:56.742Z,22.83
2018-01-20T21:09:25.760Z,22.53
2018-01-20T21:11:54.159Z,21.80
2018-01-20T21:14:23.221Z,25.77
2018-01-20T21:16:51.492Z,22.00
2018-01-20T21:19:20.544Z,23.23
2018-01-20T21:21:48.796Z,23.07
2018-01-20T21:24:17.096Z,22.00
2018-01-20T21:26:45.353Z,22.53
2018-01-20T21:29:14.524Z,21.50
2018-01-20T21:31:42.898Z,23.10
2018-01-20T21:34:12.113Z,20.07
2018-01-20T21:36:41.949Z,20.53
2018-01-20T21:39:10.645Z,22.83
2018-01-20T21:41:39.953Z,20.80
2018-01-20T21:44:08.622Z,21.33
2018-01-20T21:46:37.098Z,20.27
2018-01-20T21:49:05.745Z,19.23
2018-01-20T21:51:33.969Z,18.27
2018-01-20T21:54:04.240Z,18.73
2018-01-20T21:56:32.843Z,19.10
2018-01-20T21:59:02.114Z,16.80
2018-01-20T22:01:30.763Z,17.77
2018-01-20T22:03:59.273Z,17.67
2018-01-20T22:06:28.012Z,15.17
2018-01-20T22:08:56.548Z,18.93
2018-01-20T22:11:25.584Z,17.50
2018-01-20T22:13:54.284Z,19.27
2018-01-20T22:16:22.613Z,17.37
2018-01-20T22:18:50.950Z,16.50
2018-01-20T22:21:19.216Z,16.27
2018-01-20T22:23:47.554Z,17.90
2018-01-20T22:26:15.898Z,17.73
2018-01-20T22:28:44.159Z,15.57
2018-01-20T22:31:13.060Z,16.23
2018-01-20T22:33:41.830Z,16.70
2018-01-20T22:36:10.141Z,17.30
2018-01-20T22:38:38.456Z,17.67
2018-01-20T22:41:07.481Z,15.37
2018-01-20T22:43:35.890Z,16.67
2018-01-20T22:46:04.181Z,16.97
2018-01-20T22:48:32.801Z,17.33
2018-01-20T22:51:01.961Z,18.10
2018-01-20T22:53:30.280Z,17.20
2018-01-20T22:55:59.444Z,15.60
2018-01-20T22:58:27.798Z,15.50
2018-01-20T23:00:56.041Z,17.03
2018-01-20T23:03:25.076Z,15.80
2018-01-20T23:05:53.376Z,15.70
2018-01-20T23:08:21.665Z,14.73
2018-01-20T23:10:49.953Z,14.00
2018-01-20T23:13:18.238Z,16.20
2018-01-20T23:15:47.286Z,15.40
2018-01-20T23:18:15.608Z,14.23
2018-01-20T23:20:44.876Z,14.70
2018-01-20T23:23:13.133Z,15.57
2018-01-20T23:25:41.413Z,18.40
2018-01-20T23:28:10.855Z,16.03
2018-01-20T23:30:39.173Z,14.03
2018-01-20T23:33:07.524Z,15.90
2018-01-20T23:35:35.776Z,14.27
2018-01-20T23:38:04.822Z,15.87
2018-01-20T23:40:33.108Z,15.43
2018-01-20T23:43:01.404Z,14.93
2018-01-20T23:45:29.642Z,15.13
2018-01-20T23:47:57.968Z,14.63
2018-01-20T23:50:26.216Z,14.53
2018-01-20T23:52:54.509Z,13.43
2018-01-20T23:55:23.194Z,13.20
2018-01-20T23:57:51.452Z,14.30
